createdAt,value
2017-10-27T00:00:52.150Z,0
2017-10-27T00:02:01.813Z,0
2017-10-27T00:03:11.820Z,0
2017-10-27T00:04:21.835Z,0
2017-10-27T00:05:32.182Z,0
2017-10-27T00:06:42.190Z,0
2017-10-27T00:07:52.524Z,0
2017-10-27T00:09:02.536Z,0
2017-10-27T00:10:12.882Z,0
2017-10-27T00:11:23.215Z,0
2017-10-27T00:12:33.556Z,0
2017-10-27T00:13:43.557Z,0
2017-10-27T00:14:53.565Z,0
2017-10-27T00:16:03.905Z,0
2017-10-27T00:17:13.918Z,0
2017-10-27T00:18:24.259Z,0
2017-10-27T00:19:33.590Z,0
2017-10-27T00:20:43.925Z,0
2017-10-27T00:21:53.935Z,0
2017-10-27T00:23:04.274Z,0
2017-10-27T00:24:14.625Z,0
2017-10-27T00:25:24.626Z,0
2017-10-27T00:26:34.966Z,0
2017-10-27T00:27:45.320Z,0
2017-10-27T00:28:55.656Z,0
2017-10-27T00:30:05.668Z,0
2017-10-27T00:31:16.022Z,0
2017-10-27T00:32:25.743Z,0
2017-10-27T00:33:36.089Z,0
2017-10-27T00:34:46.427Z,0
2017-10-27T00:35:56.761Z,0
2017-10-27T00:37:07.111Z,0
2017-10-27T00:38:17.451Z,0
2017-10-27T00:39:27.809Z,0
2017-10-27T00:40:37.819Z,0
2017-10-27T00:41:47.488Z,0
2017-10-27T00:42:57.834Z,0
2017-10-27T00:44:07.851Z,0
2017-10-27T00:45:18.199Z,0
2017-10-27T00:46:28.538Z,0
2017-10-27T00:47:38.545Z,0
2017-10-27T00:48:48.882Z,0
2017-10-27T00:49:58.884Z,0
2017-10-27T00:51:08.893Z,0
2017-10-27T00:52:18.915Z,0
2017-10-27T00:53:29.252Z,0
2017-10-27T00:54:39.590Z,0
2017-10-27T00:55:48.923Z,0
2017-10-27T00:56:59.260Z,0
2017-10-27T00:58:09.264Z,0
2017-10-27T00:59:19.606Z,0
2017-10-27T01:00:29.947Z,0
2017-10-27T01:01:39.962Z,0
2017-10-27T01:02:50.345Z,0
2017-10-27T01:04:00.377Z,0
2017-10-27T01:05:10.385Z,0
2017-10-27T01:06:20.740Z,0
2017-10-27T01:07:31.080Z,0
2017-10-27T01:08:41.092Z,0
2017-10-27T01:09:51.432Z,0
2017-10-27T01:11:01.769Z,0
2017-10-27T01:12:11.774Z,0
2017-10-27T01:13:22.141Z,0
2017-10-27T01:14:32.476Z,0
2017-10-27T01:15:42.479Z,0
2017-10-27T01:16:52.816Z,0
2017-10-27T01:18:03.149Z,0
2017-10-27T01:19:12.815Z,0
2017-10-27T01:20:23.154Z,0
2017-10-27T01:21:33.487Z,0
2017-10-27T01:22:43.830Z,0
2017-10-27T01:23:54.165Z,0
2017-10-27T01:25:04.503Z,0
2017-10-27T01:26:14.503Z,0
2017-10-27T01:27:24.850Z,0
2017-10-27T01:28:34.848Z,0
2017-10-27T01:29:44.846Z,0
2017-10-27T01:30:55.203Z,0
2017-10-27T01:32:05.199Z,0
2017-10-27T01:33:15.537Z,0
2017-10-27T01:34:25.542Z,0
2017-10-27T01:35:35.216Z,0
2017-10-27T01:36:45.652Z,0
2017-10-27T01:37:55.671Z,0
2017-10-27T01:39:05.686Z,0
2017-10-27T01:40:15.686Z,0
2017-10-27T01:41:26.031Z,0
2017-10-27T01:42:36.033Z,0
2017-10-27T01:43:46.434Z,0
2017-10-27T01:44:56.772Z,0
2017-10-27T01:46:07.113Z,0
2017-10-27T01:47:17.455Z,0
2017-10-27T01:48:27.827Z,0
2017-10-27T01:49:37.828Z,0
2017-10-27T01:50:48.176Z,0
2017-10-27T01:51:58.523Z,0
2017-10-27T01:53:08.190Z,0
2017-10-27T01:54:18.537Z,0
2017-10-27T01:55:28.875Z,0
2017-10-27T01:56:40.413Z,0
2017-10-27T01:57:50.743Z,0
2017-10-27T01:59:01.103Z,0
2017-10-27T02:00:11.456Z,0
2017-10-27T02:01:21.797Z,0
2017-10-27T02:02:32.154Z,0
2017-10-27T02:03:42.491Z,0
2017-10-27T02:04:52.839Z,0
2017-10-27T02:06:03.176Z,0
2017-10-27T02:07:13.511Z,0
2017-10-27T02:08:23.853Z,0
2017-10-27T02:09:34.191Z,0
2017-10-27T02:10:44.192Z,0
2017-10-27T02:11:54.536Z,0
2017-10-27T02:13:04.538Z,0
2017-10-27T02:14:14.543Z,0
2017-10-27T02:15:24.563Z,0
2017-10-27T02:16:34.908Z,0
2017-10-27T02:17:44.910Z,0
2017-10-27T02:18:54.916Z,0
2017-10-27T02:20:05.255Z,0
2017-10-27T02:21:15.589Z,0
2017-10-27T02:22:25.595Z,0
2017-10-27T02:23:35.932Z,0
2017-10-27T02:24:46.268Z,0
2017-10-27T02:25:56.634Z,0
2017-10-27T02:27:06.634Z,0
2017-10-27T02:28:16.637Z,0
2017-10-27T02:29:26.971Z,0
2017-10-27T02:30:37.308Z,0
2017-10-27T02:31:46.641Z,0
2017-10-27T02:32:56.989Z,0
2017-10-27T02:34:07.336Z,0
2017-10-27T02:35:17.681Z,0
2017-10-27T02:36:28.027Z,0
2017-10-27T02:37:38.379Z,0
2017-10-27T02:38:48.727Z,0
2017-10-27T02:39:58.742Z,0
2017-10-27T02:41:08.751Z,0
2017-10-27T02:42:19.088Z,0
2017-10-27T02:43:29.094Z,0
2017-10-27T02:44:39.440Z,0
2017-10-27T02:45:49.457Z,0
2017-10-27T02:46:59.806Z,0
2017-10-27T02:48:10.153Z,0
2017-10-27T02:49:20.509Z,0
2017-10-27T02:50:30.851Z,0
2017-10-27T02:51:40.888Z,0
2017-10-27T02:52:51.530Z,0
2017-10-27T02:54:01.539Z,0
2017-10-27T02:55:11.888Z,0
2017-10-27T02:56:21.892Z,0
2017-10-27T02:57:32.238Z,0
2017-10-27T02:58:42.586Z,0
2017-10-27T02:59:52.613Z,0
2017-10-27T03:01:02.961Z,0
2017-10-27T03:02:13.304Z,0
2017-10-27T03:03:23.648Z,0
2017-10-27T03:04:33.988Z,0
2017-10-27T03:05:44.328Z,0
2017-10-27T03:06:54.667Z,0
2017-10-27T03:08:04.669Z,0
2017-10-27T03:09:14.672Z,0
2017-10-27T03:10:24.682Z,0
2017-10-27T03:11:35.051Z,0
2017-10-27T03:12:45.395Z,0
2017-10-27T03:13:55.064Z,0
2017-10-27T03:15:05.401Z,0
2017-10-27T03:16:15.404Z,0
2017-10-27T03:17:25.741Z,0
2017-10-27T03:18:35.747Z,0
2017-10-27T03:19:46.089Z,0
2017-10-27T03:20:56.424Z,0
2017-10-27T03:22:08.761Z,0
2017-10-27T03:23:19.097Z,0
2017-10-27T03:24:29.100Z,0
2017-10-27T03:25:39.437Z,0
2017-10-27T03:26:49.773Z,0
2017-10-27T03:28:00.116Z,0
2017-10-27T03:29:10.480Z,0
2017-10-27T03:30:20.486Z,0
2017-10-27T03:31:30.840Z,0
2017-10-27T03:32:40.839Z,0
2017-10-27T03:33:50.841Z,0
2017-10-27T03:35:01.184Z,0
2017-10-27T03:36:11.538Z,0
2017-10-27T03:37:21.874Z,0
2017-10-27T03:38:31.882Z,0
2017-10-27T03:39:42.216Z,0
2017-10-27T03:40:52.563Z,0
2017-10-27T03:42:02.899Z,0
2017-10-27T03:43:12.900Z,0
2017-10-27T03:44:23.240Z,0
2017-10-27T03:45:33.931Z,0
2017-10-27T03:46:44.264Z,0
2017-10-27T03:47:54.606Z,0
2017-10-27T03:49:04.280Z,0
2017-10-27T03:50:13.943Z,0
2017-10-27T03:51:23.948Z,0
2017-10-27T03:52:34.289Z,0
2017-10-27T03:53:44.291Z,0
2017-10-27T03:54:54.308Z,0
2017-10-27T03:56:04.646Z,0
2017-10-27T03:57:14.698Z,0
2017-10-27T03:58:24.696Z,0
2017-10-27T03:59:35.034Z,0
2017-10-27T04:00:45.368Z,0
2017-10-27T04:01:55.033Z,0
2017-10-27T04:03:05.033Z,0
2017-10-27T04:04:15.391Z,0
2017-10-27T04:05:25.730Z,0
2017-10-27T04:06:35.737Z,0
2017-10-27T04:07:46.108Z,0
2017-10-27T04:08:56.457Z,0
2017-10-27T04:10:06.457Z,0
2017-10-27T04:11:16.459Z,0
2017-10-27T04:12:26.462Z,0
2017-10-27T04:13:36.800Z,0
2017-10-27T04:14:47.135Z,0
2017-10-27T04:15:57.133Z,0
2017-10-27T04:17:07.137Z,0
2017-10-27T04:18:17.486Z,0
2017-10-27T04:19:27.818Z,0
2017-10-27T04:20:38.153Z,0
2017-10-27T04:21:48.158Z,0
2017-10-27T04:22:58.166Z,0
2017-10-27T04:24:08.508Z,0
2017-10-27T04:25:18.851Z,0
2017-10-27T04:26:28.861Z,0
2017-10-27T04:27:38.528Z,0
2017-10-27T04:28:48.536Z,0
2017-10-27T04:29:58.872Z,0
2017-10-27T04:31:09.218Z,0
2017-10-27T04:32:18.883Z,0
2017-10-27T04:33:29.232Z,0
2017-10-27T04:34:39.567Z,0
2017-10-27T04:35:49.568Z,0
2017-10-27T04:36:59.906Z,0
2017-10-27T04:38:10.265Z,0
2017-10-27T04:39:20.263Z,0
2017-10-27T04:40:30.620Z,0
2017-10-27T04:41:40.621Z,0
2017-10-27T04:42:50.962Z,0
2017-10-27T04:44:03.305Z,0
2017-10-27T04:45:13.648Z,0
2017-10-27T04:46:23.992Z,0
2017-10-27T04:47:33.992Z,0
2017-10-27T04:48:44.332Z,0
2017-10-27T04:49:54.670Z,0
2017-10-27T04:51:04.676Z,0
2017-10-27T04:52:15.021Z,0
2017-10-27T04:53:25.376Z,0
2017-10-27T04:54:35.712Z,0
2017-10-27T04:55:46.049Z,0
2017-10-27T04:56:56.387Z,0
2017-10-27T04:58:06.387Z,0
2017-10-27T04:59:16.736Z,0
2017-10-27T05:00:26.758Z,0
2017-10-27T05:01:37.092Z,0
2017-10-27T05:02:47.427Z,0
2017-10-27T05:03:57.764Z,0
2017-10-27T05:05:08.105Z,0
2017-10-27T05:06:18.442Z,0
2017-10-27T05:07:28.780Z,0
2017-10-27T05:08:38.787Z,0
2017-10-27T05:09:48.797Z,0
2017-10-27T05:10:58.801Z,0
2017-10-27T05:12:08.468Z,0
2017-10-27T05:13:18.805Z,0
2017-10-27T05:14:29.151Z,0
2017-10-27T05:15:39.493Z,0
2017-10-27T05:16:49.502Z,0
2017-10-27T05:17:59.511Z,0
2017-10-27T05:19:09.518Z,0
2017-10-27T05:20:19.519Z,0
2017-10-27T05:21:29.186Z,0
2017-10-27T05:22:39.518Z,0
2017-10-27T05:23:49.538Z,0
2017-10-27T05:24:59.540Z,0
2017-10-27T05:26:09.890Z,0
2017-10-27T05:27:20.264Z,0
2017-10-27T05:28:30.606Z,0
2017-10-27T05:29:41.069Z,0
2017-10-27T05:30:51.083Z,0
2017-10-27T05:32:01.432Z,0
2017-10-27T05:33:11.766Z,0
2017-10-27T05:34:21.447Z,0
2017-10-27T05:35:31.803Z,0
2017-10-27T05:36:42.142Z,0
2017-10-27T05:37:52.157Z,0
2017-10-27T05:39:02.494Z,0
2017-10-27T05:40:11.833Z,0
2017-10-27T05:41:22.175Z,0
2017-10-27T05:42:31.844Z,0
2017-10-27T05:43:42.193Z,0
2017-10-27T05:44:51.529Z,0
2017-10-27T05:46:01.876Z,0
2017-10-27T05:47:11.875Z,4
2017-10-27T05:48:22.210Z,4
2017-10-27T05:49:32.557Z,0
2017-10-27T05:50:41.887Z,0
2017-10-27T05:51:52.227Z,4
2017-10-27T05:53:02.226Z,4
2017-10-27T05:54:12.229Z,4
2017-10-27T05:55:22.583Z,4
2017-10-27T05:56:32.931Z,4
2017-10-27T05:57:42.931Z,8
2017-10-27T05:58:53.274Z,8
2017-10-27T06:00:03.653Z,8
2017-10-27T06:01:13.987Z,12
2017-10-27T06:02:24.328Z,12
2017-10-27T06:03:34.668Z,12
2017-10-27T06:04:45.022Z,16
2017-10-27T06:05:55.360Z,20
2017-10-27T06:07:05.699Z,24
2017-10-27T06:08:15.714Z,28
2017-10-27T06:09:25.714Z,32
2017-10-27T06:10:36.051Z,36
2017-10-27T06:11:46.388Z,44
2017-10-27T06:12:56.730Z,48
2017-10-27T06:14:06.755Z,56
2017-10-27T06:15:17.131Z,60
2017-10-27T06:16:27.476Z,68
2017-10-27T06:17:37.811Z,84
2017-10-27T06:18:47.820Z,96
2017-10-27T06:19:57.818Z,108
2017-10-27T06:21:07.836Z,124
2017-10-27T06:22:18.178Z,140
2017-10-27T06:23:28.180Z,156
2017-10-27T06:24:38.188Z,172
2017-10-27T06:25:48.554Z,188
2017-10-27T06:26:58.888Z,208
2017-10-27T06:28:09.282Z,228
2017-10-27T06:29:19.634Z,248
2017-10-27T06:30:29.637Z,276
2017-10-27T06:31:39.641Z,300
2017-10-27T06:32:49.978Z,336
2017-10-27T06:34:00.319Z,372
2017-10-27T06:35:10.330Z,416
2017-10-27T06:36:20.672Z,464
2017-10-27T06:37:30.680Z,508
2017-10-27T06:38:40.686Z,556
2017-10-27T06:39:50.693Z,604
2017-10-27T06:41:01.034Z,648
2017-10-27T06:42:11.037Z,692
2017-10-27T06:43:21.373Z,732
2017-10-27T06:44:31.376Z,764
2017-10-27T06:45:41.719Z,780
2017-10-27T06:46:51.722Z,792
2017-10-27T06:48:01.729Z,788
2017-10-27T06:49:11.737Z,784
2017-10-27T06:50:22.071Z,768
2017-10-27T06:51:32.081Z,756
2017-10-27T06:52:42.413Z,744
2017-10-27T06:53:52.426Z,740
2017-10-27T06:55:02.428Z,736
2017-10-27T06:56:12.103Z,740
2017-10-27T06:57:22.112Z,752
2017-10-27T06:58:32.121Z,776
2017-10-27T06:59:42.122Z,804
2017-10-27T07:00:52.457Z,840
2017-10-27T07:02:02.460Z,880
2017-10-27T07:03:12.800Z,916
2017-10-27T07:04:22.802Z,948
2017-10-27T07:05:32.800Z,980
2017-10-27T07:06:43.140Z,1008
2017-10-27T07:07:53.176Z,1036
2017-10-27T07:09:03.594Z,1068
2017-10-27T07:10:13.598Z,1096
2017-10-27T07:11:23.618Z,1140
2017-10-27T07:12:33.973Z,1188
2017-10-27T07:13:44.016Z,1248
2017-10-27T07:14:54.356Z,1312
2017-10-27T07:16:04.728Z,1388
2017-10-27T07:17:14.741Z,1460
2017-10-27T07:18:24.772Z,1512
2017-10-27T07:19:35.107Z,1552
2017-10-27T07:20:45.108Z,1572
2017-10-27T07:21:55.445Z,1580
2017-10-27T07:23:05.446Z,1596
2017-10-27T07:24:15.817Z,1608
2017-10-27T07:25:26.165Z,1624
2017-10-27T07:26:36.186Z,1644
2017-10-27T07:27:45.853Z,1664
2017-10-27T07:28:56.187Z,1684
2017-10-27T07:30:06.191Z,1696
2017-10-27T07:31:16.549Z,1700
2017-10-27T07:32:26.235Z,1696
2017-10-27T07:33:36.237Z,1688
2017-10-27T07:34:46.242Z,1696
2017-10-27T07:35:56.250Z,1716
2017-10-27T07:37:05.917Z,1728
2017-10-27T07:38:16.270Z,1728
2017-10-27T07:39:26.298Z,1708
2017-10-27T07:40:35.965Z,1676
2017-10-27T07:41:46.309Z,1640
2017-10-27T07:42:56.323Z,1604
2017-10-27T07:44:06.355Z,1576
2017-10-27T07:45:16.691Z,1560
2017-10-27T07:46:26.692Z,1564
2017-10-27T07:47:36.707Z,1580
2017-10-27T07:48:46.713Z,1604
2017-10-27T07:49:57.051Z,1640
2017-10-27T07:51:06.720Z,1688
2017-10-27T07:52:16.722Z,1740
2017-10-27T07:53:26.733Z,1796
2017-10-27T07:54:37.076Z,1856
2017-10-27T07:55:47.410Z,1916
2017-10-27T07:56:57.752Z,1964
2017-10-27T07:58:08.121Z,2000
2017-10-27T07:59:18.460Z,2024
2017-10-27T08:00:28.479Z,2020
2017-10-27T08:01:38.821Z,1996
2017-10-27T08:02:49.160Z,1964
2017-10-27T08:03:59.497Z,1932
2017-10-27T08:05:09.531Z,1900
2017-10-27T08:06:19.869Z,1872
2017-10-27T08:07:29.541Z,1856
2017-10-27T08:08:40.209Z,1844
2017-10-27T08:09:50.208Z,1856
2017-10-27T08:10:59.876Z,1888
2017-10-27T08:12:09.544Z,1944
2017-10-27T08:13:19.890Z,2012
2017-10-27T08:14:30.226Z,2092
2017-10-27T08:15:40.565Z,2172
2017-10-27T08:16:50.231Z,2252
2017-10-27T08:18:00.582Z,2320
2017-10-27T08:19:10.595Z,2356
2017-10-27T08:20:20.942Z,2340
2017-10-27T08:21:30.946Z,2288
2017-10-27T08:22:41.291Z,2220
2017-10-27T08:23:51.652Z,2180
2017-10-27T08:25:01.657Z,2188
2017-10-27T08:26:13.996Z,2236
2017-10-27T08:27:23.674Z,2320
2017-10-27T08:28:34.019Z,2424
2017-10-27T08:29:44.358Z,2536
2017-10-27T08:30:54.698Z,2656
2017-10-27T08:32:04.752Z,2784
2017-10-27T08:33:14.768Z,2940
2017-10-27T08:34:24.790Z,3104
2017-10-27T08:35:34.814Z,3252
2017-10-27T08:36:44.822Z,3368
2017-10-27T08:37:54.830Z,3456
2017-10-27T08:39:04.829Z,3520
2017-10-27T08:40:15.163Z,3568
2017-10-27T08:41:25.165Z,3620
2017-10-27T08:42:35.168Z,3688
2017-10-27T08:43:45.525Z,3760
2017-10-27T08:44:55.872Z,3828
2017-10-27T08:46:05.537Z,3900
2017-10-27T08:47:15.574Z,3940
2017-10-27T08:48:25.914Z,3956
2017-10-27T08:49:36.311Z,3952
2017-10-27T08:50:45.979Z,3916
2017-10-27T08:51:56.322Z,3860
2017-10-27T08:53:06.660Z,3784
2017-10-27T08:54:16.995Z,3708
2017-10-27T08:55:27.337Z,3648
2017-10-27T08:56:37.352Z,3616
2017-10-27T08:57:47.353Z,3624
2017-10-27T08:58:57.696Z,3680
2017-10-27T09:00:08.038Z,3776
2017-10-27T09:01:20.045Z,3908
2017-10-27T09:02:30.381Z,4064
2017-10-27T09:03:40.714Z,4260
2017-10-27T09:04:50.724Z,4492
2017-10-27T09:06:00.392Z,4700
2017-10-27T09:07:10.060Z,4836
2017-10-27T09:08:20.080Z,4996
2017-10-27T09:09:30.416Z,5152
2017-10-27T09:10:40.756Z,5236
2017-10-27T09:11:50.757Z,5356
2017-10-27T09:13:00.760Z,5388
2017-10-27T09:14:10.762Z,5564
2017-10-27T09:15:21.102Z,5748
2017-10-27T09:16:30.774Z,5848
2017-10-27T09:17:40.448Z,5956
2017-10-27T09:18:50.119Z,6084
2017-10-27T09:19:59.789Z,6064
2017-10-27T09:21:09.792Z,6072
2017-10-27T09:22:20.142Z,6084
2017-10-27T09:23:30.140Z,6176
2017-10-27T09:24:40.482Z,6272
2017-10-27T09:25:50.156Z,6428
2017-10-27T09:27:00.172Z,6660
2017-10-27T09:28:10.177Z,6904
2017-10-27T09:29:20.513Z,7136
2017-10-27T09:30:30.518Z,7340
2017-10-27T09:31:40.858Z,7512
2017-10-27T09:32:51.216Z,7636
2017-10-27T09:34:01.564Z,7696
2017-10-27T09:35:11.923Z,7684
2017-10-27T09:36:21.933Z,7596
2017-10-27T09:37:32.270Z,7480
2017-10-27T09:38:42.614Z,7372
2017-10-27T09:39:52.963Z,7260
2017-10-27T09:41:03.313Z,7144
2017-10-27T09:42:12.983Z,7012
2017-10-27T09:43:23.336Z,6892
2017-10-27T09:44:33.346Z,6740
2017-10-27T09:45:43.349Z,6524
2017-10-27T09:46:53.734Z,6264
2017-10-27T09:48:04.073Z,6004
2017-10-27T09:49:14.078Z,5800
2017-10-27T09:50:24.418Z,5612
2017-10-27T09:51:34.764Z,5448
2017-10-27T09:52:45.101Z,5312
2017-10-27T09:53:55.445Z,5172
2017-10-27T09:55:05.462Z,5012
2017-10-27T09:56:15.797Z,4868
2017-10-27T09:57:26.140Z,4728
2017-10-27T09:58:35.474Z,4592
2017-10-27T09:59:45.824Z,4448
2017-10-27T10:00:56.183Z,4328
2017-10-27T10:02:06.186Z,4248
2017-10-27T10:03:16.553Z,4216
2017-10-27T10:04:26.933Z,4200
2017-10-27T10:05:36.943Z,4168
2017-10-27T10:06:47.290Z,4104
2017-10-27T10:07:57.299Z,4008
2017-10-27T10:09:07.313Z,3908
2017-10-27T10:10:17.314Z,3836
2017-10-27T10:11:27.652Z,3820
2017-10-27T10:12:37.329Z,3868
2017-10-27T10:13:47.685Z,4016
2017-10-27T10:14:57.690Z,4288
2017-10-27T10:16:07.696Z,4700
2017-10-27T10:17:17.699Z,5232
2017-10-27T10:18:27.703Z,5872
2017-10-27T10:19:38.045Z,6556
2017-10-27T10:20:48.394Z,7176
2017-10-27T10:21:58.739Z,7624
2017-10-27T10:23:09.103Z,7796
2017-10-27T10:24:19.444Z,7688
2017-10-27T10:25:29.785Z,7432
2017-10-27T10:26:39.121Z,7100
2017-10-27T10:27:49.126Z,6636
2017-10-27T10:28:59.127Z,6120
2017-10-27T10:30:08.797Z,5748
2017-10-27T10:31:19.148Z,5560
2017-10-27T10:32:29.508Z,5500
2017-10-27T10:33:39.518Z,5584
2017-10-27T10:34:49.887Z,5756
2017-10-27T10:36:00.238Z,5968
2017-10-27T10:37:10.598Z,5568
2017-10-27T10:38:20.945Z,5012
2017-10-27T10:39:31.289Z,4828
2017-10-27T10:40:41.293Z,5008
2017-10-27T10:41:51.311Z,5404
2017-10-27T10:43:01.662Z,5720
2017-10-27T10:44:11.666Z,5748
2017-10-27T10:45:21.334Z,5736
2017-10-27T10:46:31.010Z,5868
2017-10-27T10:47:41.356Z,5928
2017-10-27T10:48:51.358Z,5932
2017-10-27T10:50:01.705Z,6244
2017-10-27T10:51:11.707Z,6820
2017-10-27T10:52:21.719Z,7452
2017-10-27T10:53:32.089Z,8092
2017-10-27T10:54:42.446Z,8608
2017-10-27T10:55:52.454Z,8688
2017-10-27T10:57:02.810Z,8628
2017-10-27T10:58:12.836Z,8532
2017-10-27T10:59:23.180Z,8732
2017-10-27T11:00:33.535Z,9588
2017-10-27T11:01:43.891Z,10568
2017-10-27T11:02:54.231Z,10816
2017-10-27T11:04:04.570Z,9816
2017-10-27T11:05:14.241Z,8924
2017-10-27T11:06:24.578Z,7544
2017-10-27T11:07:34.928Z,5440
2017-10-27T11:08:45.269Z,4432
2017-10-27T11:09:55.274Z,4272
2017-10-27T11:11:05.289Z,4436
2017-10-27T11:12:15.295Z,4732
2017-10-27T11:13:25.302Z,4936
2017-10-27T11:14:35.650Z,4964
2017-10-27T11:15:46.003Z,4800
2017-10-27T11:16:55.673Z,4704
2017-10-27T11:18:05.688Z,4632
2017-10-27T11:19:16.040Z,4452
2017-10-27T11:20:26.401Z,4200
2017-10-27T11:21:36.423Z,3916
2017-10-27T11:22:46.103Z,3652
2017-10-27T11:23:56.106Z,3404
2017-10-27T11:25:06.115Z,3192
2017-10-27T11:26:15.785Z,3016
2017-10-27T11:27:26.125Z,2916
2017-10-27T11:28:36.472Z,3052
2017-10-27T11:29:46.824Z,3340
2017-10-27T11:30:57.163Z,3668
2017-10-27T11:32:07.518Z,3996
2017-10-27T11:33:17.858Z,4288
2017-10-27T11:34:27.615Z,4432
2017-10-27T11:35:37.283Z,4420
2017-10-27T11:36:47.622Z,4336
2017-10-27T11:37:57.962Z,4312
2017-10-27T11:39:08.306Z,4348
2017-10-27T11:40:18.318Z,4512
2017-10-27T11:41:28.731Z,4676
2017-10-27T11:42:38.748Z,4772
2017-10-27T11:43:49.097Z,4928
2017-10-27T11:44:59.431Z,5108
2017-10-27T11:46:09.440Z,5196
2017-10-27T11:47:19.444Z,5152
2017-10-27T11:48:29.793Z,4872
2017-10-27T11:49:40.132Z,4608
2017-10-27T11:50:50.475Z,4664
2017-10-27T11:52:00.836Z,4920
2017-10-27T11:53:10.837Z,5060
2017-10-27T11:54:20.841Z,4920
2017-10-27T11:55:31.178Z,4528
2017-10-27T11:56:40.847Z,4188
2017-10-27T11:57:51.186Z,4072
2017-10-27T11:59:01.197Z,4100
2017-10-27T12:00:11.199Z,4148
2017-10-27T12:01:20.869Z,4240
2017-10-27T12:02:31.218Z,4504
2017-10-27T12:03:41.218Z,4816
2017-10-27T12:04:51.574Z,5128
2017-10-27T12:06:01.914Z,5408
2017-10-27T12:07:12.249Z,5680
2017-10-27T12:08:22.605Z,5784
2017-10-27T12:09:32.614Z,5796
2017-10-27T12:10:42.949Z,5656
2017-10-27T12:11:53.290Z,5576
2017-10-27T12:13:03.295Z,5264
2017-10-27T12:14:13.631Z,4888
2017-10-27T12:15:23.642Z,4656
2017-10-27T12:16:33.642Z,4464
2017-10-27T12:17:43.649Z,4184
2017-10-27T12:18:53.989Z,3812
2017-10-27T12:20:04.014Z,3488
2017-10-27T12:21:14.038Z,3312
2017-10-27T12:22:24.041Z,3208
2017-10-27T12:23:34.381Z,3108
2017-10-27T12:24:44.722Z,3048
2017-10-27T12:25:54.738Z,3044
2017-10-27T12:27:04.745Z,3088
2017-10-27T12:28:15.092Z,3116
2017-10-27T12:29:25.431Z,3088
2017-10-27T12:30:35.782Z,3068
2017-10-27T12:31:46.117Z,3080
2017-10-27T12:32:56.457Z,3164
2017-10-27T12:34:06.796Z,3332
2017-10-27T12:35:16.806Z,3564
2017-10-27T12:36:27.147Z,3804
2017-10-27T12:37:37.489Z,3976
2017-10-27T12:38:47.493Z,4104
2017-10-27T12:39:57.503Z,4204
2017-10-27T12:41:07.844Z,4224
2017-10-27T12:42:18.189Z,4208
2017-10-27T12:43:28.527Z,4224
2017-10-27T12:44:38.874Z,4244
2017-10-27T12:45:48.898Z,4192
2017-10-27T12:46:59.250Z,4060
2017-10-27T12:48:09.254Z,3868
2017-10-27T12:49:19.598Z,3720
2017-10-27T12:50:29.951Z,3636
2017-10-27T12:51:39.991Z,3528
2017-10-27T12:52:49.996Z,3460
2017-10-27T12:54:00.335Z,3412
2017-10-27T12:55:10.337Z,3348
2017-10-27T12:56:20.679Z,3300
2017-10-27T12:57:30.699Z,3232
2017-10-27T12:58:41.039Z,3172
2017-10-27T12:59:51.385Z,3112
2017-10-27T13:01:01.732Z,3100
2017-10-27T13:02:12.076Z,3216
2017-10-27T13:03:22.080Z,3408
2017-10-27T13:04:32.102Z,3592
2017-10-27T13:05:42.104Z,3660
2017-10-27T13:06:52.451Z,3616
2017-10-27T13:08:02.788Z,3516
2017-10-27T13:09:13.125Z,3408
2017-10-27T13:10:23.129Z,3316
2017-10-27T13:11:33.134Z,3244
2017-10-27T13:12:43.143Z,3164
2017-10-27T13:13:53.483Z,3064
2017-10-27T13:15:03.842Z,2896
2017-10-27T13:16:14.214Z,2692
2017-10-27T13:17:24.549Z,2524
2017-10-27T13:18:34.889Z,2416
2017-10-27T13:19:45.236Z,2372
2017-10-27T13:20:55.574Z,2344
2017-10-27T13:22:05.940Z,2308
2017-10-27T13:23:16.287Z,2272
2017-10-27T13:24:28.631Z,2260
2017-10-27T13:25:38.972Z,2260
2017-10-27T13:26:48.977Z,2256
2017-10-27T13:27:59.314Z,2260
2017-10-27T13:29:08.649Z,2244
2017-10-27T13:30:18.990Z,2216
2017-10-27T13:31:29.328Z,2196
2017-10-27T13:32:39.665Z,2184
2017-10-27T13:33:49.667Z,2160
2017-10-27T13:35:00.002Z,2124
2017-10-27T13:36:09.673Z,2088
2017-10-27T13:37:20.019Z,2052
2017-10-27T13:38:30.365Z,2036
2017-10-27T13:39:40.708Z,2040
2017-10-27T13:40:51.053Z,2084
2017-10-27T13:42:01.391Z,2128
2017-10-27T13:43:11.731Z,2180
2017-10-27T13:44:21.733Z,2236
2017-10-27T13:45:32.074Z,2304
2017-10-27T13:46:42.087Z,2336
2017-10-27T13:47:51.759Z,2312
2017-10-27T13:49:02.101Z,2232
2017-10-27T13:50:12.115Z,2124
2017-10-27T13:51:22.469Z,2032
2017-10-27T13:52:32.826Z,1952
2017-10-27T13:53:43.170Z,1872
2017-10-27T13:54:53.180Z,1776
2017-10-27T13:56:03.524Z,1676
2017-10-27T13:57:13.537Z,1596
2017-10-27T13:58:23.873Z,1544
2017-10-27T13:59:33.761Z,1508
2017-10-27T14:00:44.125Z,1480
2017-10-27T14:01:54.128Z,1448
2017-10-27T14:03:04.132Z,1400
2017-10-27T14:04:14.492Z,1352
2017-10-27T14:05:24.498Z,1312
2017-10-27T14:06:34.503Z,1276
2017-10-27T14:07:44.512Z,1232
2017-10-27T14:08:54.857Z,1184
2017-10-27T14:10:04.859Z,1132
2017-10-27T14:11:15.243Z,1084
2017-10-27T14:12:25.263Z,1036
2017-10-27T14:13:35.629Z,1012
2017-10-27T14:14:45.630Z,1004
2017-10-27T14:15:55.976Z,988
2017-10-27T14:17:05.985Z,980
2017-10-27T14:18:16.018Z,972
2017-10-27T14:19:26.032Z,956
2017-10-27T14:20:36.372Z,940
2017-10-27T14:21:46.050Z,920
2017-10-27T14:22:56.397Z,892
2017-10-27T14:24:06.737Z,868
2017-10-27T14:25:17.078Z,844
2017-10-27T14:26:27.432Z,820
2017-10-27T14:27:37.780Z,808
2017-10-27T14:28:47.783Z,796
2017-10-27T14:29:58.127Z,788
2017-10-27T14:31:08.473Z,780
2017-10-27T14:32:18.147Z,768
2017-10-27T14:33:28.503Z,752
2017-10-27T14:34:38.842Z,732
2017-10-27T14:35:48.512Z,712
2017-10-27T14:36:58.859Z,692
2017-10-27T14:38:09.200Z,672
2017-10-27T14:39:19.535Z,644
2017-10-27T14:40:29.879Z,620
2017-10-27T14:41:39.884Z,588
2017-10-27T14:42:50.220Z,556
2017-10-27T14:44:00.575Z,524
2017-10-27T14:45:10.912Z,492
2017-10-27T14:46:23.254Z,468
2017-10-27T14:47:33.607Z,440
2017-10-27T14:48:43.616Z,424
2017-10-27T14:49:53.954Z,400
2017-10-27T14:51:03.962Z,376
2017-10-27T14:52:13.966Z,360
2017-10-27T14:53:24.306Z,344
2017-10-27T14:54:34.652Z,332
2017-10-27T14:55:44.653Z,316
2017-10-27T14:56:54.997Z,304
2017-10-27T14:58:05.339Z,288
2017-10-27T14:59:15.357Z,272
2017-10-27T15:00:25.368Z,260
2017-10-27T15:01:35.709Z,244
2017-10-27T15:02:45.715Z,228
2017-10-27T15:03:58.051Z,216
2017-10-27T15:05:07.723Z,204
2017-10-27T15:06:17.745Z,188
2017-10-27T15:07:27.760Z,176
2017-10-27T15:08:38.100Z,164
2017-10-27T15:09:47.771Z,152
2017-10-27T15:10:58.115Z,144
2017-10-27T15:12:07.786Z,136
2017-10-27T15:13:17.454Z,128
2017-10-27T15:14:27.454Z,124
2017-10-27T15:15:37.126Z,120
2017-10-27T15:16:47.471Z,116
2017-10-27T15:17:57.822Z,112
2017-10-27T15:19:07.824Z,108
2017-10-27T15:20:18.194Z,104
2017-10-27T15:21:28.198Z,100
2017-10-27T15:22:38.536Z,92
2017-10-27T15:23:48.539Z,88
2017-10-27T15:24:58.881Z,84
2017-10-27T15:26:08.886Z,76
2017-10-27T15:27:19.546Z,68
2017-10-27T15:28:29.216Z,60
2017-10-27T15:29:39.588Z,52
2017-10-27T15:30:49.599Z,48
2017-10-27T15:31:59.614Z,44
2017-10-27T15:33:09.957Z,40
2017-10-27T15:34:20.296Z,32
2017-10-27T15:35:30.640Z,32
2017-10-27T15:36:40.984Z,28
2017-10-27T15:37:51.339Z,24
2017-10-27T15:39:01.020Z,20
2017-10-27T15:40:11.356Z,16
2017-10-27T15:41:21.030Z,16
2017-10-27T15:42:31.410Z,16
2017-10-27T15:43:41.411Z,12
2017-10-27T15:44:51.757Z,12
2017-10-27T15:46:02.101Z,12
2017-10-27T15:47:12.111Z,8
2017-10-27T15:48:22.447Z,8
2017-10-27T15:49:32.452Z,4
2017-10-27T15:50:42.787Z,4
2017-10-27T15:51:53.132Z,8
2017-10-27T15:53:03.134Z,4
2017-10-27T15:54:12.809Z,4
2017-10-27T15:55:22.834Z,4
2017-10-27T15:56:32.839Z,4
2017-10-27T15:57:42.172Z,4
2017-10-27T15:58:52.534Z,4
2017-10-27T16:00:02.883Z,4
2017-10-27T16:01:12.552Z,0
2017-10-27T16:02:22.554Z,0
2017-10-27T16:03:32.941Z,0
2017-10-27T16:04:43.286Z,0
2017-10-27T16:05:53.651Z,0
2017-10-27T16:07:04.005Z,0
2017-10-27T16:08:14.025Z,0
2017-10-27T16:09:24.366Z,0
2017-10-27T16:10:34.701Z,0
2017-10-27T16:11:44.715Z,0
2017-10-27T16:12:55.056Z,0
2017-10-27T16:14:05.402Z,0
2017-10-27T16:15:15.411Z,0
2017-10-27T16:16:25.760Z,0
2017-10-27T16:17:35.763Z,0
2017-10-27T16:18:46.103Z,0
2017-10-27T16:19:56.404Z,0